createdAt,value
2018-12-15T00:00:35.585Z,12.73
2018-12-15T00:03:04.060Z,12.40
2018-12-15T00:05:32.484Z,11.93
2018-12-15T00:08:00.867Z,12.93
2018-12-15T00:10:29.348Z,11.73
2018-12-15T00:12:57.680Z,13.03
2018-12-15T00:15:26.044Z,12.45
2018-12-15T00:17:54.407Z,13.95
2018-12-15T00:20:22.744Z,13.05
2018-12-15T00:22:51.108Z,12.90
2018-12-15T00:25:19.580Z,13.55
2018-12-15T00:27:47.930Z,12.53
2018-12-15T00:30:16.281Z,13.10
2018-12-15T00:32:44.906Z,13.15
2018-12-15T00:35:13.334Z,13.78
2018-12-15T00:37:41.622Z,12.55
2018-12-15T00:40:10.057Z,13.38
2018-12-15T00:42:38.396Z,13.13
2018-12-15T00:45:06.833Z,14.90
2018-12-15T00:47:35.189Z,14.20
2018-12-15T00:50:03.541Z,13.38
2018-12-15T00:52:31.912Z,14.30
2018-12-15T00:55:00.491Z,13.53
2018-12-15T00:57:28.786Z,14.35
2018-12-15T00:59:57.132Z,14.93
2018-12-15T01:02:25.448Z,15.23
2018-12-15T01:04:53.731Z,14.65
2018-12-15T01:07:22.039Z,14.50
2018-12-15T01:09:50.438Z,15.25
2018-12-15T01:12:18.728Z,14.55
2018-12-15T01:14:47.002Z,14.63
2018-12-15T01:17:20.419Z,15.23
2018-12-15T01:19:45.820Z,15.35
2018-12-15T01:22:14.176Z,14.95
2018-12-15T01:24:42.541Z,14.47
2018-12-15T01:27:10.850Z,15.75
2018-12-15T01:29:39.188Z,15.20
2018-12-15T01:32:07.540Z,14.60
2018-12-15T01:34:35.907Z,16.80
2018-12-15T01:37:04.228Z,15.93
2018-12-15T01:39:32.672Z,17.37
2018-12-15T01:42:00.989Z,14.95
2018-12-15T01:44:29.307Z,16.02
2018-12-15T01:46:57.749Z,15.75
2018-12-15T01:49:26.144Z,16.32
2018-12-15T01:51:54.470Z,15.25
2018-12-15T01:54:23.088Z,16.95
2018-12-15T01:56:51.411Z,16.23
2018-12-15T01:59:19.839Z,16.10
2018-12-15T02:01:48.317Z,15.93
2018-12-15T02:04:16.620Z,16.82
2018-12-15T02:06:44.941Z,16.45
2018-12-15T02:09:13.312Z,15.70
2018-12-15T02:11:41.594Z,17.30
2018-12-15T02:14:09.917Z,17.32
2018-12-15T02:16:38.254Z,16.00
2018-12-15T02:19:06.602Z,17.00
2018-12-15T02:21:34.888Z,17.00
2018-12-15T02:24:03.468Z,17.82
2018-12-15T02:26:31.784Z,17.52
2018-12-15T02:29:00.141Z,19.12
2018-12-15T02:31:28.479Z,17.73
2018-12-15T02:33:56.864Z,16.65
2018-12-15T02:36:25.212Z,17.90
2018-12-15T02:38:53.568Z,19.35
2018-12-15T02:41:21.921Z,19.07
2018-12-15T02:43:50.244Z,19.00
2018-12-15T02:46:18.623Z,17.87
2018-12-15T02:48:46.941Z,18.07
2018-12-15T02:51:15.255Z,18.90
2018-12-15T02:53:43.589Z,18.92
2018-12-15T02:56:11.938Z,19.27
2018-12-15T02:58:40.266Z,17.52
2018-12-15T03:01:08.595Z,17.77
2018-12-15T03:03:37.077Z,17.60
2018-12-15T03:06:05.460Z,19.23
2018-12-15T03:08:34.027Z,17.92
2018-12-15T03:11:02.370Z,17.50
2018-12-15T03:13:30.715Z,18.30
2018-12-15T03:15:59.051Z,16.20
2018-12-15T03:18:27.355Z,18.40
2018-12-15T03:21:00.961Z,18.82
2018-12-15T03:23:29.333Z,19.30
2018-12-15T03:25:57.632Z,18.77
2018-12-15T03:28:26.037Z,19.48
2018-12-15T03:30:54.331Z,19.07
2018-12-15T03:33:22.738Z,18.05
2018-12-15T03:35:51.104Z,19.05
2018-12-15T03:38:19.417Z,19.15
2018-12-15T03:40:47.707Z,19.40
2018-12-15T03:43:16.063Z,19.30
2018-12-15T03:45:44.411Z,20.68
2018-12-15T03:48:12.754Z,18.73
2018-12-15T03:50:41.509Z,19.10
2018-12-15T03:53:09.805Z,21.05
2018-12-15T03:55:38.090Z,20.92
2018-12-15T03:58:06.424Z,19.30
2018-12-15T04:00:34.778Z,20.02
2018-12-15T04:03:03.166Z,20.08
2018-12-15T04:05:31.540Z,19.40
2018-12-15T04:07:59.842Z,19.00
2018-12-15T04:10:28.139Z,20.77
2018-12-15T04:12:56.847Z,21.42
2018-12-15T04:15:25.240Z,22.10
2018-12-15T04:17:53.552Z,21.30
2018-12-15T04:20:21.913Z,19.55
2018-12-15T04:22:50.260Z,20.30
2018-12-15T04:25:18.544Z,22.75
2018-12-15T04:27:46.905Z,20.40
2018-12-15T04:30:15.232Z,20.43
2018-12-15T04:32:45.352Z,21.27
2018-12-15T04:35:13.956Z,21.48
2018-12-15T04:37:42.257Z,22.13
2018-12-15T04:40:10.891Z,21.45
2018-12-15T04:42:39.248Z,23.02
2018-12-15T04:45:07.660Z,20.95
2018-12-15T04:47:35.963Z,20.05
2018-12-15T04:50:04.600Z,21.02
2018-12-15T04:52:32.917Z,23.42
2018-12-15T04:55:01.233Z,22.55
2018-12-15T04:57:29.777Z,23.57
2018-12-15T04:59:58.059Z,23.52
2018-12-15T05:02:26.392Z,22.77
2018-12-15T05:04:54.857Z,24.00
2018-12-15T05:07:23.194Z,24.20
2018-12-15T05:09:51.464Z,24.20
2018-12-15T05:12:19.794Z,23.20
2018-12-15T05:14:48.353Z,22.30
2018-12-15T05:17:16.654Z,24.55
2018-12-15T05:19:45.124Z,25.40
2018-12-15T05:22:13.944Z,23.65
2018-12-15T05:24:42.919Z,23.35
2018-12-15T05:27:11.716Z,26.35
2018-12-15T05:29:40.022Z,25.25
2018-12-15T05:32:08.321Z,21.93
2018-12-15T05:34:36.656Z,24.15
2018-12-15T05:37:04.945Z,24.15
2018-12-15T05:39:33.286Z,25.23
2018-12-15T05:42:01.792Z,24.25
2018-12-15T05:44:30.136Z,24.72
2018-12-15T05:46:58.447Z,25.60
2018-12-15T05:49:26.787Z,23.98
2018-12-15T05:51:55.110Z,24.23
2018-12-15T05:54:23.396Z,24.35
2018-12-15T05:56:51.838Z,26.68
2018-12-15T05:59:20.182Z,26.95
2018-12-15T06:01:48.496Z,25.88
2018-12-15T06:04:16.886Z,27.17
2018-12-15T06:06:45.207Z,25.90
2018-12-15T06:09:13.510Z,26.48
2018-12-15T06:11:41.835Z,26.55
2018-12-15T06:14:10.119Z,26.37
2018-12-15T06:16:38.564Z,26.20
2018-12-15T06:19:06.952Z,27.00
2018-12-15T06:21:35.236Z,25.72
2018-12-15T06:24:03.520Z,26.65
2018-12-15T06:26:31.922Z,25.00
2018-12-15T06:29:00.222Z,27.10
2018-12-15T06:31:28.536Z,26.05
2018-12-15T06:33:56.891Z,26.55
2018-12-15T06:36:25.176Z,26.87
2018-12-15T06:38:57.489Z,24.75
2018-12-15T06:41:26.742Z,25.65
2018-12-15T06:43:55.037Z,25.55
2018-12-15T06:46:23.384Z,30.02
2018-12-15T06:48:51.769Z,26.07
2018-12-15T06:51:20.146Z,26.05
2018-12-15T06:53:48.451Z,27.22
2018-12-15T06:56:17.045Z,27.15
2018-12-15T06:58:45.385Z,26.90
2018-12-15T07:01:13.701Z,26.52
2018-12-15T07:03:42.036Z,23.98
2018-12-15T07:06:10.417Z,24.63
2018-12-15T07:08:38.745Z,25.75
2018-12-15T07:11:07.509Z,25.52
2018-12-15T07:13:35.784Z,26.25
2018-12-15T07:16:04.124Z,24.90
2018-12-15T07:18:32.436Z,26.25
2018-12-15T07:21:00.754Z,26.52
2018-12-15T07:23:29.110Z,24.90
2018-12-15T07:25:57.450Z,24.20
2018-12-15T07:28:25.729Z,24.50
2018-12-15T07:30:54.054Z,24.18
2018-12-15T07:33:22.753Z,25.70
2018-12-15T07:35:51.090Z,23.92
2018-12-15T07:38:19.505Z,25.37
2018-12-15T07:40:47.957Z,22.73
2018-12-15T07:43:17.123Z,25.85
2018-12-15T07:45:45.427Z,23.35
2018-12-15T07:48:13.761Z,25.40
2018-12-15T07:50:42.038Z,24.60
2018-12-15T07:53:10.314Z,23.73
2018-12-15T07:55:38.736Z,23.50
2018-12-15T07:58:07.056Z,22.13
2018-12-15T08:00:35.391Z,21.73
2018-12-15T08:03:03.748Z,23.18
2018-12-15T08:05:32.060Z,23.10
2018-12-15T08:08:00.366Z,23.47
2018-12-15T08:10:30.620Z,21.93
2018-12-15T08:13:00.826Z,21.10
2018-12-15T08:15:29.160Z,21.90
2018-12-15T08:17:57.801Z,22.02
2018-12-15T08:20:26.152Z,20.77
2018-12-15T08:22:54.510Z,22.70
2018-12-15T08:25:22.935Z,21.07
2018-12-15T08:27:51.307Z,21.85
2018-12-15T08:30:19.646Z,21.40
2018-12-15T08:32:47.994Z,21.10
2018-12-15T08:35:16.324Z,19.85
2018-12-15T08:37:44.696Z,20.30
2018-12-15T08:40:13.746Z,18.85
2018-12-15T08:42:42.077Z,19.23
2018-12-15T08:45:10.413Z,18.65
2018-12-15T08:47:38.744Z,19.52
2018-12-15T08:50:07.121Z,19.15
2018-12-15T08:52:35.510Z,19.35
2018-12-15T08:55:04.877Z,19.50
2018-12-15T08:57:33.205Z,18.82
2018-12-15T09:00:01.529Z,17.35
2018-12-15T09:02:30.139Z,18.80
2018-12-15T09:04:58.460Z,18.15
2018-12-15T09:09:59.432Z,17.23
2018-12-15T09:12:27.788Z,16.62
2018-12-15T09:14:56.092Z,16.67
2018-12-15T09:17:24.450Z,16.17
2018-12-15T09:19:52.796Z,16.82
2018-12-15T09:22:21.135Z,15.00
2018-12-15T09:24:49.522Z,16.67
2018-12-15T09:27:17.859Z,16.48
2018-12-15T09:29:46.165Z,15.60
2018-12-15T09:32:14.489Z,15.53
2018-12-15T09:34:42.797Z,16.32
2018-12-15T09:37:11.141Z,14.95
2018-12-15T09:39:39.474Z,14.60
2018-12-15T09:42:07.800Z,14.25
2018-12-15T09:44:36.094Z,15.85
2018-12-15T09:47:04.616Z,15.10
2018-12-15T09:49:32.930Z,14.53
2018-12-15T09:52:01.283Z,15.23
2018-12-15T09:54:29.656Z,14.43
2018-12-15T09:56:57.955Z,15.65
2018-12-15T09:59:26.258Z,13.75
2018-12-15T10:01:54.705Z,14.75
2018-12-15T10:04:23.022Z,12.70
2018-12-15T10:06:51.329Z,11.78
2018-12-15T10:09:19.848Z,12.95
2018-12-15T10:11:48.281Z,13.30
2018-12-15T10:14:16.598Z,13.50
2018-12-15T10:16:44.953Z,13.58
2018-12-15T10:19:13.266Z,11.00
2018-12-15T10:21:41.613Z,12.65
2018-12-15T10:24:09.920Z,12.78
2018-12-15T10:26:38.256Z,12.75
2018-12-15T10:29:08.521Z,12.18
2018-12-15T10:31:42.849Z,12.23
2018-12-15T10:34:11.168Z,10.53
2018-12-15T10:36:39.481Z,11.25
2018-12-15T10:39:08.668Z,11.03
2018-12-15T10:41:36.972Z,11.12
2018-12-15T10:44:05.295Z,9.70
2018-12-15T10:46:33.627Z,10.48
2018-12-15T10:49:01.968Z,10.20
2018-12-15T10:51:30.280Z,10.68
2018-12-15T10:53:58.789Z,10.53
2018-12-15T10:56:27.113Z,10.63
2018-12-15T10:58:55.388Z,9.90
2018-12-15T11:01:23.781Z,10.40
2018-12-15T11:03:52.141Z,10.35
2018-12-15T11:06:20.468Z,10.43
2018-12-15T11:08:48.837Z,9.10
2018-12-15T11:11:17.183Z,9.83
2018-12-15T11:13:45.475Z,9.08
2018-12-15T11:16:14.005Z,9.00
2018-12-15T11:18:42.301Z,10.65
2018-12-15T11:21:10.580Z,10.13
2018-12-15T11:23:38.913Z,9.70
2018-12-15T11:26:07.281Z,9.05
2018-12-15T11:28:35.574Z,9.43
2018-12-15T11:31:03.943Z,9.08
2018-12-15T11:33:32.267Z,8.45
2018-12-15T11:36:00.588Z,9.40
2018-12-15T11:38:29.046Z,8.98
2018-12-15T11:40:57.370Z,8.48
2018-12-15T11:43:25.713Z,8.33
2018-12-15T11:45:54.074Z,9.03
2018-12-15T11:48:22.345Z,9.25
2018-12-15T11:50:50.643Z,7.05
2018-12-15T11:53:18.959Z,5.35
2018-12-15T11:55:47.238Z,5.78
2018-12-15T11:58:15.563Z,4.87
2018-12-15T12:00:44.754Z,6.58
2018-12-15T12:03:13.106Z,5.97
2018-12-15T12:05:41.398Z,7.55
2018-12-15T12:08:09.741Z,6.25
2018-12-15T12:10:38.113Z,6.33
2018-12-15T12:13:06.494Z,7.00
2018-12-15T12:15:34.817Z,7.00
2018-12-15T12:18:03.150Z,7.00
2018-12-15T12:20:31.445Z,6.80
2018-12-15T12:23:00.191Z,7.30
2018-12-15T12:25:28.547Z,7.05
2018-12-15T12:27:56.913Z,7.50
2018-12-15T12:30:25.231Z,7.50
2018-12-15T12:32:53.541Z,7.58
2018-12-15T12:35:21.886Z,7.95
2018-12-15T12:37:50.213Z,6.62
2018-12-15T12:40:18.539Z,7.58
2018-12-15T12:42:46.860Z,7.37
2018-12-15T12:45:15.356Z,7.42
2018-12-15T12:47:43.632Z,7.40
2018-12-15T12:50:11.971Z,7.92
2018-12-15T12:52:40.338Z,8.43
2018-12-15T12:55:09.982Z,8.00
2018-12-15T12:57:38.272Z,7.65
2018-12-15T13:00:06.768Z,8.90
2018-12-15T13:02:35.083Z,7.75
2018-12-15T13:05:03.881Z,8.95
2018-12-15T13:07:32.340Z,7.53
2018-12-15T13:10:00.904Z,7.25
2018-12-15T13:12:29.245Z,8.63
2018-12-15T13:14:57.601Z,7.40
2018-12-15T13:17:26.049Z,8.40
2018-12-15T13:19:54.392Z,7.42
2018-12-15T13:22:22.769Z,7.53
2018-12-15T13:24:51.186Z,8.63
2018-12-15T13:27:19.483Z,8.65
2018-12-15T13:29:48.014Z,9.48
2018-12-15T13:32:16.483Z,8.20
2018-12-15T13:34:44.824Z,11.15
2018-12-15T13:37:13.225Z,8.13
2018-12-15T13:39:41.601Z,8.30
2018-12-15T13:42:09.925Z,8.90
2018-12-15T13:44:38.367Z,8.73
2018-12-15T13:47:06.719Z,8.98
2018-12-15T13:49:35.094Z,7.70
2018-12-15T13:52:03.604Z,8.05
2018-12-15T13:54:31.919Z,9.00
2018-12-15T13:57:00.232Z,7.67
2018-12-15T13:59:28.554Z,8.05
2018-12-15T14:01:56.862Z,8.68
2018-12-15T14:04:25.156Z,8.73
2018-12-15T14:06:53.478Z,8.70
2018-12-15T14:09:21.908Z,9.05
2018-12-15T14:11:50.184Z,7.33
2018-12-15T14:14:18.853Z,8.00
2018-12-15T14:16:47.231Z,8.30
2018-12-15T14:19:15.546Z,8.95
2018-12-15T14:21:43.884Z,8.50
2018-12-15T14:24:12.232Z,8.80
2018-12-15T14:26:40.541Z,7.60
2018-12-15T14:29:08.909Z,7.42
2018-12-15T14:31:37.272Z,7.58
2018-12-15T14:34:05.586Z,9.25
2018-12-15T14:36:33.971Z,8.38
2018-12-15T14:39:02.269Z,8.25
2018-12-15T14:41:30.566Z,8.40
2018-12-15T14:43:58.928Z,8.73
2018-12-15T14:46:27.287Z,8.20
2018-12-15T14:48:55.621Z,8.40
2018-12-15T14:51:23.930Z,8.05
2018-12-15T14:53:52.246Z,8.58
2018-12-15T14:56:20.537Z,10.35
2018-12-15T14:58:49.038Z,8.83
2018-12-15T15:01:17.314Z,8.85
2018-12-15T15:03:45.639Z,9.68
2018-12-15T15:06:14.012Z,9.43
2018-12-15T15:08:42.318Z,8.90
2018-12-15T15:11:10.675Z,9.03
2018-12-15T15:13:39.107Z,8.85
2018-12-15T15:16:07.447Z,11.20
2018-12-15T15:18:35.919Z,9.50
2018-12-15T15:21:04.387Z,8.73
2018-12-15T15:23:32.694Z,8.78
2018-12-15T15:26:01.028Z,8.63
2018-12-15T15:28:29.586Z,8.75
2018-12-15T15:30:57.884Z,9.65
2018-12-15T15:33:26.215Z,8.98
2018-12-15T15:35:54.541Z,8.10
2018-12-15T15:38:22.891Z,11.25
2018-12-15T15:40:51.206Z,9.73
2018-12-15T15:43:19.745Z,10.30
2018-12-15T15:45:48.070Z,9.43
2018-12-15T15:48:16.360Z,9.65
2018-12-15T15:50:44.746Z,8.05
2018-12-15T15:53:13.066Z,9.20
2018-12-15T15:55:41.465Z,11.00
2018-12-15T15:58:09.848Z,9.85
2018-12-15T16:00:38.198Z,10.28
2018-12-15T16:03:06.567Z,10.35
2018-12-15T16:05:35.118Z,25.12
2018-12-15T16:08:03.498Z,11.75
2018-12-15T16:10:31.908Z,10.18
2018-12-15T16:13:00.242Z,10.45
2018-12-15T16:15:28.567Z,10.50
2018-12-15T16:17:56.865Z,10.28
2018-12-15T16:20:26.124Z,9.75
2018-12-15T16:22:54.544Z,10.25
2018-12-15T16:25:22.902Z,10.10
2018-12-15T16:27:51.431Z,10.60
2018-12-15T16:30:19.750Z,11.60
2018-12-15T16:32:48.096Z,10.78
2018-12-15T16:35:16.456Z,10.30
2018-12-15T16:37:44.760Z,10.13
2018-12-15T16:40:13.123Z,10.75
2018-12-15T16:42:41.483Z,10.70
2018-12-15T16:45:09.916Z,10.65
2018-12-15T16:47:38.241Z,11.35
2018-12-15T16:50:10.376Z,11.20
2018-12-15T16:52:39.188Z,11.10
2018-12-15T16:55:07.808Z,10.40
2018-12-15T16:57:36.227Z,10.20
2018-12-15T17:00:08.178Z,11.90
2018-12-15T17:02:36.477Z,10.60
2018-12-15T17:05:05.930Z,10.05
2018-12-15T17:07:34.295Z,11.70
2018-12-15T17:10:02.631Z,10.98
2018-12-15T17:12:31.950Z,10.63
2018-12-15T17:15:00.272Z,10.90
2018-12-15T17:17:28.589Z,10.68
2018-12-15T17:19:56.945Z,11.95
2018-12-15T17:22:25.221Z,11.90
2018-12-15T17:24:53.532Z,11.50
2018-12-15T17:27:27.569Z,9.90
2018-12-15T17:29:55.892Z,11.68
2018-12-15T17:32:24.253Z,10.80
2018-12-15T17:34:52.887Z,10.82
2018-12-15T17:37:21.256Z,10.75
2018-12-15T17:39:49.584Z,11.83
2018-12-15T17:42:17.947Z,10.45
2018-12-15T17:44:46.291Z,10.90
2018-12-15T17:47:14.610Z,11.45
2018-12-15T17:49:42.986Z,11.08
2018-12-15T17:52:11.357Z,10.53
2018-12-15T17:54:39.717Z,11.78
2018-12-15T17:57:08.322Z,10.23
2018-12-15T17:59:36.619Z,12.15
2018-12-15T18:02:04.997Z,10.13
2018-12-15T18:04:33.321Z,12.07
2018-12-15T18:07:01.641Z,11.30
2018-12-15T18:09:29.961Z,11.38
2018-12-15T18:11:58.275Z,11.20
2018-12-15T18:14:26.597Z,11.25
2018-12-15T18:16:54.946Z,10.90
2018-12-15T18:19:24.040Z,11.63
2018-12-15T18:21:52.356Z,11.03
2018-12-15T18:24:20.670Z,13.48
2018-12-15T18:26:49.008Z,12.40
2018-12-15T18:29:17.353Z,10.65
2018-12-15T18:31:45.680Z,12.35
2018-12-15T18:34:14.003Z,12.15
2018-12-15T18:36:46.463Z,10.75
2018-12-15T18:39:15.028Z,10.40
2018-12-15T18:41:43.478Z,10.82
2018-12-15T18:44:11.813Z,9.93
2018-12-15T18:46:40.169Z,10.00
2018-12-15T18:49:08.739Z,9.23
2018-12-15T18:51:37.052Z,10.55
2018-12-15T18:54:05.443Z,10.75
2018-12-15T18:56:34.036Z,9.90
2018-12-15T18:59:02.597Z,9.00
2018-12-15T19:01:31.150Z,9.68
2018-12-15T19:03:59.547Z,9.98
2018-12-15T19:06:27.887Z,8.95
2018-12-15T19:08:56.235Z,10.25
2018-12-15T19:11:24.683Z,9.00
2018-12-15T19:13:52.999Z,9.40
2018-12-15T19:16:21.350Z,9.03
2018-12-15T19:18:49.648Z,9.55
2018-12-15T19:21:22.934Z,8.95
2018-12-15T19:23:48.553Z,9.23
2018-12-15T19:26:16.954Z,8.35
2018-12-15T19:28:45.278Z,9.08
2018-12-15T19:31:13.619Z,9.50
2018-12-15T19:33:41.924Z,8.40
2018-12-15T19:36:10.237Z,9.15
2018-12-15T19:38:38.596Z,9.20
2018-12-15T19:41:07.035Z,9.88
2018-12-15T19:43:35.331Z,9.90
2018-12-15T19:46:03.824Z,9.45
2018-12-15T19:48:32.202Z,8.58
2018-12-15T19:53:40.567Z,8.48
2018-12-15T19:56:08.898Z,9.20
2018-12-15T19:58:37.211Z,8.93
2018-12-15T20:01:05.977Z,9.75
2018-12-15T20:03:34.306Z,8.33
2018-12-15T20:06:02.629Z,9.48
2018-12-15T20:08:31.068Z,9.80
2018-12-15T20:10:59.414Z,9.15
2018-12-15T20:13:27.769Z,8.78
2018-12-15T20:15:56.772Z,10.13
2018-12-15T20:18:25.108Z,10.65
2018-12-15T20:20:53.424Z,10.30
2018-12-15T20:23:21.950Z,10.13
2018-12-15T20:25:50.289Z,10.40
2018-12-15T20:28:18.671Z,11.03
2018-12-15T20:30:47.022Z,9.88
2018-12-15T20:33:15.335Z,10.38
2018-12-15T20:35:43.679Z,9.73
2018-12-15T20:38:12.022Z,10.50
2018-12-15T20:40:40.401Z,10.88
2018-12-15T20:43:08.731Z,10.28
2018-12-15T20:45:37.415Z,10.85
2018-12-15T20:48:05.779Z,10.38
2018-12-15T20:50:34.236Z,10.90
2018-12-15T20:53:02.588Z,10.08
2018-12-15T20:55:31.058Z,10.40
2018-12-15T20:57:59.378Z,10.18
2018-12-15T21:00:27.767Z,10.53
2018-12-15T21:02:56.089Z,11.08
2018-12-15T21:05:24.426Z,10.88
2018-12-15T21:07:52.882Z,10.85
2018-12-15T21:10:21.232Z,11.57
2018-12-15T21:12:49.581Z,10.35
2018-12-15T21:15:19.991Z,10.40
2018-12-15T21:17:48.429Z,11.18
2018-12-15T21:20:17.152Z,10.75
2018-12-15T21:22:45.815Z,9.98
2018-12-15T21:25:14.199Z,10.55
2018-12-15T21:27:42.543Z,10.65
2018-12-15T21:30:11.161Z,10.90
2018-12-15T21:32:39.669Z,10.05
2018-12-15T21:35:08.108Z,10.90
2018-12-15T21:37:36.588Z,10.75
2018-12-15T21:40:06.511Z,12.13
2018-12-15T21:42:34.845Z,11.08
2018-12-15T21:45:03.272Z,10.85
2018-12-15T21:47:31.583Z,11.20
2018-12-15T21:49:59.952Z,11.25
2018-12-15T21:52:28.480Z,12.20
2018-12-15T21:54:56.836Z,12.95
2018-12-15T21:57:25.155Z,11.33
2018-12-15T21:59:53.481Z,11.80
2018-12-15T22:02:21.873Z,13.13
2018-12-15T22:04:50.207Z,12.18
2018-12-15T22:07:18.668Z,12.80
2018-12-15T22:09:46.984Z,12.98
2018-12-15T22:12:15.337Z,11.45
2018-12-15T22:14:43.777Z,12.85
2018-12-15T22:17:12.166Z,12.98
2018-12-15T22:19:40.500Z,13.35
2018-12-15T22:22:08.875Z,13.00
2018-12-15T22:24:37.168Z,14.00
2018-12-15T22:27:05.505Z,14.38
2018-12-15T22:29:33.889Z,13.43
2018-12-15T22:32:02.205Z,13.98
2018-12-15T22:34:30.515Z,15.55
2018-12-15T22:36:58.888Z,14.33
2018-12-15T22:39:29.020Z,14.98
2018-12-15T22:41:57.382Z,13.88
2018-12-15T22:44:25.725Z,16.45
2018-12-15T22:46:54.063Z,15.28
2018-12-15T22:49:22.403Z,16.20
2018-12-15T22:51:50.745Z,15.20
2018-12-15T22:54:19.060Z,15.15
2018-12-15T22:56:47.358Z,16.40
2018-12-15T22:59:15.754Z,15.35
2018-12-15T23:01:45.945Z,16.48
2018-12-15T23:04:14.878Z,16.25
2018-12-15T23:06:43.414Z,17.02
2018-12-15T23:09:11.805Z,18.10
2018-12-15T23:11:40.153Z,17.15
2018-12-15T23:14:08.506Z,19.25
2018-12-15T23:16:36.775Z,18.80
2018-12-15T23:19:05.148Z,17.20
2018-12-15T23:21:33.589Z,17.20
2018-12-15T23:24:02.073Z,17.42
2018-12-15T23:26:30.501Z,17.75
2018-12-15T23:28:58.927Z,17.85
2018-12-15T23:31:27.208Z,17.15
2018-12-15T23:33:55.493Z,15.98
2018-12-15T23:36:23.823Z,18.52
2018-12-15T23:38:52.175Z,17.27
2018-12-15T23:41:20.579Z,16.55
2018-12-15T23:43:49.335Z,18.73
2018-12-15T23:46:17.723Z,17.52
2018-12-15T23:48:46.063Z,18.15
2018-12-15T23:51:14.458Z,16.87
2018-12-15T23:53:42.798Z,17.40
2018-12-15T23:56:11.426Z,17.50
2018-12-15T23:58:39.836Z,15.98
